sensor_id;sensor_type;location;lat;lon;timestamp;pressure;altitude;pressure_sealevel;temperature;humidity
47753;BME280;2038;51.728;6.674;2022-11-23T00:01:21;98945.56;;;9.51;100.00
47753;BME280;2038;51.728;6.674;2022-11-23T00:03:53;98950.81;;;9.54;100.00
47753;BME280;2038;51.728;6.674;2022-11-23T00:06:22;98950.66;;;9.51;100.00
47753;BME280;2038;51.728;6.674;2022-11-23T00:08:50;98951.50;;;9.50;100.00
47753;BME280;2038;51.728;6.674;2022-11-23T00:11:18;98941.38;;;9.52;100.00
47753;BME280;2038;51.728;6.674;2022-11-23T00:13:47;98944.22;;;9.59;100.00
47753;BME280;2038;51.728;6.674;2022-11-23T00:16:16;98952.22;;;9.68;100.00
47753;BME280;2038;51.728;6.674;2022-11-23T00:18:44;98958.25;;;9.70;100.00
47753;BME280;2038;51.728;6.674;2022-11-23T00:21:15;98958.53;;;9.78;100.00
47753;BME280;2038;51.728;6.674;2022-11-23T00:23:43;98955.94;;;9.76;100.00
47753;BME280;2038;51.728;6.674;2022-11-23T00:26:11;98959.09;;;9.71;100.00
47753;BME280;2038;51.728;6.674;2022-11-23T00:28:38;98969.31;;;9.72;100.00
47753;BME280;2038;51.728;6.674;2022-11-23T00:31:10;98960.94;;;9.75;100.00
47753;BME280;2038;51.728;6.674;2022-11-23T00:33:38;98965.47;;;9.82;100.00
47753;BME280;2038;51.728;6.674;2022-11-23T00:36:11;98967.72;;;9.74;100.00
47753;BME280;2038;51.728;6.674;2022-11-23T00:38:41;98969.81;;;9.84;100.00
47753;BME280;2038;51.728;6.674;2022-11-23T00:41:14;98970.31;;;9.76;100.00
47753;BME280;2038;51.728;6.674;2022-11-23T00:43:42;98975.28;;;9.73;100.00
47753;BME280;2038;51.728;6.674;2022-11-23T00:46:22;98974.03;;;9.84;100.00
47753;BME280;2038;51.728;6.674;2022-11-23T00:48:53;98978.31;;;9.85;100.00
47753;BME280;2038;51.728;6.674;2022-11-23T00:51:33;98978.13;;;9.80;100.00
47753;BME280;2038;51.728;6.674;2022-11-23T00:54:02;98980.09;;;9.87;100.00
47753;BME280;2038;51.728;6.674;2022-11-23T00:56:31;98979.13;;;9.84;100.00
47753;BME280;2038;51.728;6.674;2022-11-23T00:59:00;98986.75;;;9.84;100.00
47753;BME280;2038;51.728;6.674;2022-11-23T01:01:31;98983.41;;;9.85;100.00
47753;BME280;2038;51.728;6.674;2022-11-23T01:04:00;98982.53;;;9.84;100.00
47753;BME280;2038;51.728;6.674;2022-11-23T01:06:38;98977.44;;;9.84;100.00
47753;BME280;2038;51.728;6.674;2022-11-23T01:09:23;98995.38;;;9.87;100.00
47753;BME280;2038;51.728;6.674;2022-11-23T01:11:57;98987.88;;;9.91;100.00
47753;BME280;2038;51.728;6.674;2022-11-23T01:14:26;98983.47;;;9.86;100.00
47753;BME280;2038;51.728;6.674;2022-11-23T01:16:53;98986.34;;;9.73;100.00
47753;BME280;2038;51.728;6.674;2022-11-23T01:19:19;98991.63;;;9.78;100.00
47753;BME280;2038;51.728;6.674;2022-11-23T01:21:46;98994.88;;;9.75;100.00
47753;BME280;2038;51.728;6.674;2022-11-23T01:24:17;98998.38;;;9.77;100.00
47753;BME280;2038;51.728;6.674;2022-11-23T01:26:49;98994.66;;;9.90;100.00
47753;BME280;2038;51.728;6.674;2022-11-23T01:29:22;99006.38;;;9.86;100.00
47753;BME280;2038;51.728;6.674;2022-11-23T01:31:49;99013.44;;;9.94;100.00
47753;BME280;2038;51.728;6.674;2022-11-23T01:34:16;99009.66;;;9.84;100.00
47753;BME280;2038;51.728;6.674;2022-11-23T01:36:43;99007.84;;;9.81;100.00
47753;BME280;2038;51.728;6.674;2022-11-23T01:39:10;99010.53;;;9.84;100.00
47753;BME280;2038;51.728;6.674;2022-11-23T01:41:40;99010.78;;;9.91;100.00
47753;BME280;2038;51.728;6.674;2022-11-23T01:44:28;99015.41;;;10.01;100.00
47753;BME280;2038;51.728;6.674;2022-11-23T01:47:00;99012.97;;;10.04;100.00
47753;BME280;2038;51.728;6.674;2022-11-23T01:49:44;99020.56;;;10.02;100.00
47753;BME280;2038;51.728;6.674;2022-11-23T01:52:21;99012.44;;;9.90;100.00
47753;BME280;2038;51.728;6.674;2022-11-23T01:54:53;99009.06;;;9.91;100.00
47753;BME280;2038;51.728;6.674;2022-11-23T01:57:32;99009.84;;;9.88;100.00
47753;BME280;2038;51.728;6.674;2022-11-23T02:00:04;99019.41;;;9.94;100.00
47753;BME280;2038;51.728;6.674;2022-11-23T02:02:32;99011.75;;;9.94;100.00
47753;BME280;2038;51.728;6.674;2022-11-23T02:05:01;99018.63;;;9.97;100.00
47753;BME280;2038;51.728;6.674;2022-11-23T02:07:28;99020.38;;;9.98;100.00
47753;BME280;2038;51.728;6.674;2022-11-23T02:09:56;99013.56;;;9.97;100.00
47753;BME280;2038;51.728;6.674;2022-11-23T02:12:22;99025.78;;;10.05;100.00
47753;BME280;2038;51.728;6.674;2022-11-23T02:14:49;99020.06;;;10.11;100.00
47753;BME280;2038;51.728;6.674;2022-11-23T02:17:15;99020.25;;;10.15;100.00
47753;BME280;2038;51.728;6.674;2022-11-23T02:20:01;99022.34;;;10.05;100.00
47753;BME280;2038;51.728;6.674;2022-11-23T02:28:22;99032.72;;;10.09;100.00
47753;BME280;2038;51.728;6.674;2022-11-23T02:30:53;99028.25;;;10.04;100.00
47753;BME280;2038;51.728;6.674;2022-11-23T02:33:20;99041.03;;;10.05;100.00
47753;BME280;2038;51.728;6.674;2022-11-23T02:35:52;99037.63;;;10.05;100.00
47753;BME280;2038;51.728;6.674;2022-11-23T02:38:20;99038.63;;;10.08;100.00
47753;BME280;2038;51.728;6.674;2022-11-23T02:40:48;99028.91;;;9.98;100.00
47753;BME280;2038;51.728;6.674;2022-11-23T02:43:14;99033.22;;;10.01;100.00
47753;BME280;2038;51.728;6.674;2022-11-23T02:48:18;99037.44;;;10.00;100.00
47753;BME280;2038;51.728;6.674;2022-11-23T02:50:45;99036.53;;;9.98;100.00
47753;BME280;2038;51.728;6.674;2022-11-23T02:53:11;99031.78;;;10.07;100.00
47753;BME280;2038;51.728;6.674;2022-11-23T02:55:38;99040.34;;;10.09;100.00
47753;BME280;2038;51.728;6.674;2022-11-23T02:58:05;99038.63;;;10.08;100.00
47753;BME280;2038;51.728;6.674;2022-11-23T03:00:32;99031.66;;;10.04;100.00
47753;BME280;2038;51.728;6.674;2022-11-23T03:03:00;99043.69;;;10.08;100.00
47753;BME280;2038;51.728;6.674;2022-11-23T03:05:27;99047.03;;;10.07;100.00
47753;BME280;2038;51.728;6.674;2022-11-23T03:07:54;99043.81;;;10.11;100.00
47753;BME280;2038;51.728;6.674;2022-11-23T03:10:20;99044.97;;;10.18;100.00
47753;BME280;2038;51.728;6.674;2022-11-23T03:12:46;99048.88;;;10.10;100.00
47753;BME280;2038;51.728;6.674;2022-11-23T03:15:13;99034.59;;;10.13;100.00
47753;BME280;2038;51.728;6.674;2022-11-23T03:17:39;99045.72;;;10.15;100.00
47753;BME280;2038;51.728;6.674;2022-11-23T03:20:06;99046.72;;;10.19;100.00
47753;BME280;2038;51.728;6.674;2022-11-23T03:22:33;99052.31;;;10.12;100.00
47753;BME280;2038;51.728;6.674;2022-11-23T03:24:59;99048.09;;;10.12;100.00
47753;BME280;2038;51.728;6.674;2022-11-23T03:27:25;99058.38;;;9.93;100.00
47753;BME280;2038;51.728;6.674;2022-11-23T03:29:52;99056.50;;;10.10;100.00
47753;BME280;2038;51.728;6.674;2022-11-23T03:32:18;99054.75;;;10.09;100.00
47753;BME280;2038;51.728;6.674;2022-11-23T03:34:44;99045.44;;;10.09;100.00
47753;BME280;2038;51.728;6.674;2022-11-23T03:37:10;99051.44;;;10.11;100.00
47753;BME280;2038;51.728;6.674;2022-11-23T03:39:37;99051.53;;;10.13;100.00
47753;BME280;2038;51.728;6.674;2022-11-23T03:42:03;99054.16;;;10.14;100.00
47753;BME280;2038;51.728;6.674;2022-11-23T03:44:29;99050.81;;;10.15;100.00
47753;BME280;2038;51.728;6.674;2022-11-23T03:46:56;99060.47;;;10.24;100.00
47753;BME280;2038;51.728;6.674;2022-11-23T03:49:22;99053.97;;;10.30;100.00
47753;BME280;2038;51.728;6.674;2022-11-23T03:51:48;99054.50;;;10.23;100.00
47753;BME280;2038;51.728;6.674;2022-11-23T03:54:14;99057.63;;;10.16;100.00
47753;BME280;2038;51.728;6.674;2022-11-23T03:56:40;99058.38;;;10.14;100.00
47753;BME280;2038;51.728;6.674;2022-11-23T03:59:07;99063.66;;;10.18;100.00
47753;BME280;2038;51.728;6.674;2022-11-23T04:01:33;99056.06;;;10.20;100.00
47753;BME280;2038;51.728;6.674;2022-11-23T04:03:59;99066.25;;;10.20;100.00
47753;BME280;2038;51.728;6.674;2022-11-23T04:06:25;99061.16;;;10.20;100.00
47753;BME280;2038;51.728;6.674;2022-11-23T04:08:52;99057.13;;;10.25;100.00
47753;BME280;2038;51.728;6.674;2022-11-23T04:11:18;99062.28;;;10.26;100.00
47753;BME280;2038;51.728;6.674;2022-11-23T04:13:44;99060.75;;;10.30;100.00
47753;BME280;2038;51.728;6.674;2022-11-23T04:16:13;99056.75;;;10.37;100.00
47753;BME280;2038;51.728;6.674;2022-11-23T04:18:39;99062.78;;;10.39;100.00
47753;BME280;2038;51.728;6.674;2022-11-23T04:21:05;99060.09;;;10.36;100.00
47753;BME280;2038;51.728;6.674;2022-11-23T04:23:32;99062.09;;;10.43;100.00
47753;BME280;2038;51.728;6.674;2022-11-23T04:25:58;99055.97;;;10.39;100.00
47753;BME280;2038;51.728;6.674;2022-11-23T04:28:24;99061.91;;;10.38;100.00
47753;BME280;2038;51.728;6.674;2022-11-23T04:30:50;99061.72;;;10.33;100.00
47753;BME280;2038;51.728;6.674;2022-11-23T04:33:16;99065.72;;;10.49;100.00
47753;BME280;2038;51.728;6.674;2022-11-23T04:35:43;99070.88;;;10.51;100.00
47753;BME280;2038;51.728;6.674;2022-11-23T04:38:09;99066.31;;;10.42;100.00
47753;BME280;2038;51.728;6.674;2022-11-23T04:40:35;99070.72;;;10.46;100.00
47753;BME280;2038;51.728;6.674;2022-11-23T04:43:02;99069.34;;;10.33;100.00
47753;BME280;2038;51.728;6.674;2022-11-23T04:45:29;99075.06;;;10.28;100.00
47753;BME280;2038;51.728;6.674;2022-11-23T04:47:55;99077.50;;;10.25;100.00
47753;BME280;2038;51.728;6.674;2022-11-23T04:50:21;99074.19;;;10.27;100.00
47753;BME280;2038;51.728;6.674;2022-11-23T04:52:47;99076.88;;;10.30;100.00
47753;BME280;2038;51.728;6.674;2022-11-23T04:55:14;99077.38;;;10.22;100.00
47753;BME280;2038;51.728;6.674;2022-11-23T04:57:40;99079.59;;;10.14;100.00
47753;BME280;2038;51.728;6.674;2022-11-23T05:00:07;99077.97;;;10.15;100.00
47753;BME280;2038;51.728;6.674;2022-11-23T05:02:33;99069.34;;;10.13;100.00
47753;BME280;2038;51.728;6.674;2022-11-23T05:05:00;99076.00;;;10.09;100.00
47753;BME280;2038;51.728;6.674;2022-11-23T05:07:26;99076.31;;;10.17;100.00
47753;BME280;2038;51.728;6.674;2022-11-23T05:09:52;99069.56;;;10.17;100.00
47753;BME280;2038;51.728;6.674;2022-11-23T05:12:18;99075.81;;;10.25;100.00
47753;BME280;2038;51.728;6.674;2022-11-23T05:14:44;99067.59;;;10.12;100.00
47753;BME280;2038;51.728;6.674;2022-11-23T05:17:11;99074.50;;;10.14;100.00
47753;BME280;2038;51.728;6.674;2022-11-23T05:19:37;99066.78;;;10.13;100.00
47753;BME280;2038;51.728;6.674;2022-11-23T05:22:03;99072.88;;;10.15;100.00
47753;BME280;2038;51.728;6.674;2022-11-23T05:24:29;99067.47;;;10.09;100.00
47753;BME280;2038;51.728;6.674;2022-11-23T05:26:55;99069.34;;;10.13;100.00
47753;BME280;2038;51.728;6.674;2022-11-23T05:29:22;99073.78;;;10.17;100.00
47753;BME280;2038;51.728;6.674;2022-11-23T05:31:48;99077.19;;;10.17;100.00
47753;BME280;2038;51.728;6.674;2022-11-23T05:34:14;99076.09;;;10.12;100.00
47753;BME280;2038;51.728;6.674;2022-11-23T05:36:41;99075.19;;;10.10;100.00
47753;BME280;2038;51.728;6.674;2022-11-23T05:39:07;99070.81;;;10.08;100.00
47753;BME280;2038;51.728;6.674;2022-11-23T05:41:33;99071.66;;;10.07;100.00
47753;BME280;2038;51.728;6.674;2022-11-23T05:43:59;99078.22;;;10.02;100.00
47753;BME280;2038;51.728;6.674;2022-11-23T05:46:25;99075.13;;;10.09;100.00
47753;BME280;2038;51.728;6.674;2022-11-23T05:48:52;99078.34;;;10.05;100.00
47753;BME280;2038;51.728;6.674;2022-11-23T05:51:19;99083.16;;;10.18;100.00
47753;BME280;2038;51.728;6.674;2022-11-23T05:53:45;99082.81;;;10.10;100.00
47753;BME280;2038;51.728;6.674;2022-11-23T05:56:11;99090.97;;;10.02;100.00
47753;BME280;2038;51.728;6.674;2022-11-23T05:58:37;99079.09;;;10.02;100.00
47753;BME280;2038;51.728;6.674;2022-11-23T06:01:03;99079.22;;;10.05;100.00
47753;BME280;2038;51.728;6.674;2022-11-23T06:03:30;99083.56;;;10.08;100.00
47753;BME280;2038;51.728;6.674;2022-11-23T06:05:56;99082.75;;;10.09;100.00
47753;BME280;2038;51.728;6.674;2022-11-23T06:08:22;99091.00;;;10.03;100.00
47753;BME280;2038;51.728;6.674;2022-11-23T06:10:48;99098.63;;;10.03;100.00
47753;BME280;2038;51.728;6.674;2022-11-23T06:13:14;99097.03;;;10.05;100.00
47753;BME280;2038;51.728;6.674;2022-11-23T06:15:41;99095.97;;;10.00;100.00
47753;BME280;2038;51.728;6.674;2022-11-23T06:18:07;99097.09;;;10.07;100.00
47753;BME280;2038;51.728;6.674;2022-11-23T06:20:34;99101.56;;;10.12;100.00
47753;BME280;2038;51.728;6.674;2022-11-23T06:23:00;99097.91;;;10.06;100.00
47753;BME280;2038;51.728;6.674;2022-11-23T06:25:26;99103.00;;;10.06;100.00
47753;BME280;2038;51.728;6.674;2022-11-23T06:27:58;99098.22;;;10.13;100.00
47753;BME280;2038;51.728;6.674;2022-11-23T06:30:27;99105.72;;;10.10;100.00
47753;BME280;2038;51.728;6.674;2022-11-23T06:32:53;99094.78;;;10.13;100.00
47753;BME280;2038;51.728;6.674;2022-11-23T06:35:20;99100.97;;;10.18;100.00
47753;BME280;2038;51.728;6.674;2022-11-23T06:37:50;99105.97;;;10.15;100.00
47753;BME280;2038;51.728;6.674;2022-11-23T06:40:17;99102.72;;;10.19;100.00
47753;BME280;2038;51.728;6.674;2022-11-23T06:42:43;99104.66;;;10.05;100.00
47753;BME280;2038;51.728;6.674;2022-11-23T06:45:09;99107.34;;;10.08;100.00
47753;BME280;2038;51.728;6.674;2022-11-23T06:47:36;99108.28;;;10.10;100.00
47753;BME280;2038;51.728;6.674;2022-11-23T06:50:03;99107.81;;;10.19;100.00
47753;BME280;2038;51.728;6.674;2022-11-23T06:52:30;99109.34;;;10.15;100.00
47753;BME280;2038;51.728;6.674;2022-11-23T06:54:56;99112.97;;;10.01;100.00
47753;BME280;2038;51.728;6.674;2022-11-23T06:57:22;99114.44;;;10.15;100.00
47753;BME280;2038;51.728;6.674;2022-11-23T06:59:49;99125.41;;;10.14;100.00
47753;BME280;2038;51.728;6.674;2022-11-23T07:02:15;99125.16;;;10.08;100.00
47753;BME280;2038;51.728;6.674;2022-11-23T07:04:41;99123.81;;;10.16;100.00
47753;BME280;2038;51.728;6.674;2022-11-23T07:07:08;99129.56;;;10.12;100.00
47753;BME280;2038;51.728;6.674;2022-11-23T07:09:35;99129.00;;;9.99;100.00
47753;BME280;2038;51.728;6.674;2022-11-23T07:12:01;99132.03;;;9.90;100.00
47753;BME280;2038;51.728;6.674;2022-11-23T07:14:27;99128.66;;;9.91;100.00
47753;BME280;2038;51.728;6.674;2022-11-23T07:16:54;99131.47;;;9.97;100.00
47753;BME280;2038;51.728;6.674;2022-11-23T07:19:20;99132.41;;;9.99;100.00
47753;BME280;2038;51.728;6.674;2022-11-23T07:21:46;99134.91;;;9.98;100.00
47753;BME280;2038;51.728;6.674;2022-11-23T07:24:12;99136.66;;;9.99;100.00
47753;BME280;2038;51.728;6.674;2022-11-23T07:26:39;99142.53;;;9.98;100.00
47753;BME280;2038;51.728;6.674;2022-11-23T07:29:05;99143.41;;;9.98;100.00
47753;BME280;2038;51.728;6.674;2022-11-23T07:31:31;99147.94;;;10.05;100.00
47753;BME280;2038;51.728;6.674;2022-11-23T07:33:57;99145.00;;;9.96;100.00
47753;BME280;2038;51.728;6.674;2022-11-23T07:36:24;99147.84;;;10.04;100.00
47753;BME280;2038;51.728;6.674;2022-11-23T07:38:50;99146.06;;;10.01;100.00
47753;BME280;2038;51.728;6.674;2022-11-23T07:41:16;99151.25;;;10.03;100.00
47753;BME280;2038;51.728;6.674;2022-11-23T07:43:42;99161.34;;;10.01;100.00
47753;BME280;2038;51.728;6.674;2022-11-23T07:46:08;99163.81;;;10.00;100.00
47753;BME280;2038;51.728;6.674;2022-11-23T07:48:35;99165.66;;;10.04;100.00
47753;BME280;2038;51.728;6.674;2022-11-23T07:51:01;99167.09;;;9.97;100.00
47753;BME280;2038;51.728;6.674;2022-11-23T07:53:27;99171.41;;;9.98;100.00
47753;BME280;2038;51.728;6.674;2022-11-23T07:55:57;99174.13;;;10.03;100.00
47753;BME280;2038;51.728;6.674;2022-11-23T07:58:23;99176.13;;;10.10;100.00
47753;BME280;2038;51.728;6.674;2022-11-23T08:00:50;99173.59;;;10.10;100.00
47753;BME280;2038;51.728;6.674;2022-11-23T08:03:16;99172.72;;;10.09;100.00
47753;BME280;2038;51.728;6.674;2022-11-23T08:05:43;99162.53;;;10.09;100.00
47753;BME280;2038;51.728;6.674;2022-11-23T08:08:09;99165.50;;;10.18;100.00
47753;BME280;2038;51.728;6.674;2022-11-23T08:10:36;99165.53;;;10.20;100.00
47753;BME280;2038;51.728;6.674;2022-11-23T08:13:05;99167.75;;;10.12;100.00
47753;BME280;2038;51.728;6.674;2022-11-23T08:15:32;99172.13;;;10.15;100.00
47753;BME280;2038;51.728;6.674;2022-11-23T08:18:00;99175.78;;;10.21;100.00
47753;BME280;2038;51.728;6.674;2022-11-23T08:20:28;99175.59;;;10.17;100.00
47753;BME280;2038;51.728;6.674;2022-11-23T08:22:55;99179.03;;;10.17;100.00
47753;BME280;2038;51.728;6.674;2022-11-23T08:25:23;99178.94;;;10.16;100.00
47753;BME280;2038;51.728;6.674;2022-11-23T08:27:55;99184.19;;;10.19;100.00
47753;BME280;2038;51.728;6.674;2022-11-23T08:30:21;99188.34;;;10.17;100.00
47753;BME280;2038;51.728;6.674;2022-11-23T08:32:48;99184.88;;;10.15;100.00
47753;BME280;2038;51.728;6.674;2022-11-23T08:35:14;99185.91;;;10.20;100.00
47753;BME280;2038;51.728;6.674;2022-11-23T08:37:40;99184.63;;;10.29;100.00
47753;BME280;2038;51.728;6.674;2022-11-23T08:40:07;99194.13;;;10.33;100.00
47753;BME280;2038;51.728;6.674;2022-11-23T08:42:33;99186.88;;;10.43;100.00
47753;BME280;2038;51.728;6.674;2022-11-23T08:44:59;99191.19;;;10.45;100.00
47753;BME280;2038;51.728;6.674;2022-11-23T08:47:28;99192.75;;;10.42;100.00
47753;BME280;2038;51.728;6.674;2022-11-23T08:49:55;99203.25;;;10.49;100.00
47753;BME280;2038;51.728;6.674;2022-11-23T08:52:22;99189.56;;;10.47;100.00
47753;BME280;2038;51.728;6.674;2022-11-23T08:54:48;99194.75;;;10.49;100.00
47753;BME280;2038;51.728;6.674;2022-11-23T08:57:14;99190.31;;;10.45;100.00
47753;BME280;2038;51.728;6.674;2022-11-23T08:59:41;99194.50;;;10.43;100.00
47753;BME280;2038;51.728;6.674;2022-11-23T09:02:09;99195.00;;;10.55;100.00
47753;BME280;2038;51.728;6.674;2022-11-23T09:04:38;99188.34;;;10.58;100.00
47753;BME280;2038;51.728;6.674;2022-11-23T09:07:05;99186.53;;;10.56;100.00
47753;BME280;2038;51.728;6.674;2022-11-23T09:09:31;99193.97;;;10.51;100.00
47753;BME280;2038;51.728;6.674;2022-11-23T09:11:57;99188.09;;;10.52;100.00
47753;BME280;2038;51.728;6.674;2022-11-23T09:14:24;99199.94;;;10.52;100.00
47753;BME280;2038;51.728;6.674;2022-11-23T09:16:55;99193.47;;;10.39;100.00
47753;BME280;2038;51.728;6.674;2022-11-23T09:19:21;99191.19;;;10.45;100.00
47753;BME280;2038;51.728;6.674;2022-11-23T09:21:48;99195.59;;;10.49;100.00
47753;BME280;2038;51.728;6.674;2022-11-23T09:24:14;99199.91;;;10.50;100.00
47753;BME280;2038;51.728;6.674;2022-11-23T09:26:40;99196.69;;;10.54;100.00
47753;BME280;2038;51.728;6.674;2022-11-23T09:29:07;99192.19;;;10.49;100.00
47753;BME280;2038;51.728;6.674;2022-11-23T09:31:34;99197.59;;;10.56;100.00
47753;BME280;2038;51.728;6.674;2022-11-23T09:34:01;99192.38;;;10.53;100.00
47753;BME280;2038;51.728;6.674;2022-11-23T09:36:27;99204.34;;;10.56;100.00
47753;BME280;2038;51.728;6.674;2022-11-23T09:38:54;99201.13;;;10.60;100.00
47753;BME280;2038;51.728;6.674;2022-11-23T09:50:16;99197.91;;;10.64;100.00
47753;BME280;2038;51.728;6.674;2022-11-23T09:52:54;99205.72;;;10.68;100.00
47753;BME280;2038;51.728;6.674;2022-11-23T09:55:36;99199.75;;;10.68;100.00
47753;BME280;2038;51.728;6.674;2022-11-23T09:58:09;99189.72;;;10.71;100.00
47753;BME280;2038;51.728;6.674;2022-11-23T10:01:09;99200.59;;;10.67;100.00
47753;BME280;2038;51.728;6.674;2022-11-23T10:03:39;99178.56;;;10.69;100.00
47753;BME280;2038;51.728;6.674;2022-11-23T10:09:14;99194.41;;;10.83;100.00
47753;BME280;2038;51.728;6.674;2022-11-23T10:12:14;99199.25;;;10.76;100.00
47753;BME280;2038;51.728;6.674;2022-11-23T10:15:09;99188.25;;;10.77;100.00
47753;BME280;2038;51.728;6.674;2022-11-23T10:17:57;99191.69;;;10.78;99.90
47753;BME280;2038;51.728;6.674;2022-11-23T10:23:26;99187.69;;;10.85;98.26
47753;BME280;2038;51.728;6.674;2022-11-23T10:26:05;99179.41;;;10.90;99.19
47753;BME280;2038;51.728;6.674;2022-11-23T10:28:37;99183.56;;;10.88;100.00
47753;BME280;2038;51.728;6.674;2022-11-23T10:31:11;99193.25;;;10.97;99.73
47753;BME280;2038;51.728;6.674;2022-11-23T10:36:36;99183.63;;;10.90;99.90
47753;BME280;2038;51.728;6.674;2022-11-23T10:39:19;99183.47;;;11.07;100.00
47753;BME280;2038;51.728;6.674;2022-11-23T10:41:51;99182.63;;;11.07;100.00
47753;BME280;2038;51.728;6.674;2022-11-23T10:47:07;99172.50;;;11.32;99.74
47753;BME280;2038;51.728;6.674;2022-11-23T10:49:34;99164.84;;;11.32;99.60
47753;BME280;2038;51.728;6.674;2022-11-23T10:52:22;99163.00;;;11.28;99.35
47753;BME280;2038;51.728;6.674;2022-11-23T10:54:57;99156.19;;;11.27;99.50
47753;BME280;2038;51.728;6.674;2022-11-23T10:57:43;99158.31;;;11.39;97.27
47753;BME280;2038;51.728;6.674;2022-11-23T11:02:41;99154.22;;;11.44;96.06
47753;BME280;2038;51.728;6.674;2022-11-23T11:05:38;99148.03;;;11.37;95.46
47753;BME280;2038;51.728;6.674;2022-11-23T11:08:17;99139.25;;;11.29;95.88
47753;BME280;2038;51.728;6.674;2022-11-23T11:13:31;99132.66;;;11.12;97.12
47753;BME280;2038;51.728;6.674;2022-11-23T11:15:59;99128.34;;;11.33;96.59
47753;BME280;2038;51.728;6.674;2022-11-23T11:18:33;99126.66;;;11.34;95.78
47753;BME280;2038;51.728;6.674;2022-11-23T11:23:32;99122.47;;;11.36;96.68
47753;BME280;2038;51.728;6.674;2022-11-23T11:26:24;99119.38;;;11.44;96.16
47753;BME280;2038;51.728;6.674;2022-11-23T11:28:54;99119.38;;;11.44;94.99
47753;BME280;2038;51.728;6.674;2022-11-23T11:31:42;99111.69;;;11.43;95.52
47753;BME280;2038;51.728;6.674;2022-11-23T11:43:20;99101.31;;;11.62;95.44
47753;BME280;2038;51.728;6.674;2022-11-23T11:45:59;99112.88;;;11.52;95.56
47753;BME280;2038;51.728;6.674;2022-11-23T11:57:09;99096.53;;;11.71;93.19
47753;BME280;2038;51.728;6.674;2022-11-23T11:59:53;99104.19;;;11.71;93.24
47753;BME280;2038;51.728;6.674;2022-11-23T12:02:37;99105.00;;;11.70;92.18
47753;BME280;2038;51.728;6.674;2022-11-23T12:05:40;99102.22;;;11.64;92.15
47753;BME280;2038;51.728;6.674;2022-11-23T12:08:17;99102.44;;;11.70;92.30
47753;BME280;2038;51.728;6.674;2022-11-23T12:10:55;99104.91;;;11.67;93.00
47753;BME280;2038;51.728;6.674;2022-11-23T12:13:36;99104.75;;;11.62;92.53
47753;BME280;2038;51.728;6.674;2022-11-23T12:16:18;99098.22;;;11.70;93.35
47753;BME280;2038;51.728;6.674;2022-11-23T12:19:23;99109.84;;;11.62;93.44
47753;BME280;2038;51.728;6.674;2022-11-23T12:22:18;99105.88;;;11.70;92.58
47753;BME280;2038;51.728;6.674;2022-11-23T12:25:15;99113.72;;;11.75;92.23
47753;BME280;2038;51.728;6.674;2022-11-23T12:31:04;99110.41;;;11.78;92.27
47753;BME280;2038;51.728;6.674;2022-11-23T12:33:59;99102.81;;;11.79;93.09
47753;BME280;2038;51.728;6.674;2022-11-23T12:42:47;99090.31;;;11.88;92.05
47753;BME280;2038;51.728;6.674;2022-11-23T12:57:43;99069.50;;;11.76;91.64
47753;BME280;2038;51.728;6.674;2022-11-23T13:00:19;99066.84;;;11.73;92.34
47753;BME280;2038;51.728;6.674;2022-11-23T13:05:59;99062.06;;;11.58;91.54
47753;BME280;2038;51.728;6.674;2022-11-23T13:08:54;99060.56;;;11.63;90.01
47753;BME280;2038;51.728;6.674;2022-11-23T13:15:09;99051.19;;;11.64;91.62
47753;BME280;2038;51.728;6.674;2022-11-23T13:18:17;99052.84;;;11.62;91.13
47753;BME280;2038;51.728;6.674;2022-11-23T13:21:35;99051.41;;;11.70;90.85
47753;BME280;2038;51.728;6.674;2022-11-23T13:24:22;99046.88;;;11.61;90.84
47753;BME280;2038;51.728;6.674;2022-11-23T13:40:24;99048.38;;;11.56;90.14
47753;BME280;2038;51.728;6.674;2022-11-23T13:45:39;99047.09;;;11.44;90.66
47753;BME280;2038;51.728;6.674;2022-11-23T13:53:39;99047.78;;;11.38;91.69
47753;BME280;2038;51.728;6.674;2022-11-23T13:56:31;99044.81;;;11.27;91.88
47753;BME280;2038;51.728;6.674;2022-11-23T13:59:26;99049.03;;;11.25;91.56
47753;BME280;2038;51.728;6.674;2022-11-23T14:02:00;99053.03;;;11.19;91.73
47753;BME280;2038;51.728;6.674;2022-11-23T14:04:43;99057.97;;;11.14;92.51
47753;BME280;2038;51.728;6.674;2022-11-23T14:07:24;99048.41;;;11.09;91.94
47753;BME280;2038;51.728;6.674;2022-11-23T14:10:00;99047.44;;;11.05;91.46
47753;BME280;2038;51.728;6.674;2022-11-23T14:15:25;99037.16;;;11.02;92.42
47753;BME280;2038;51.728;6.674;2022-11-23T14:34:02;99049.91;;;10.80;92.85
47753;BME280;2038;51.728;6.674;2022-11-23T14:37:10;99039.50;;;10.74;92.84
47753;BME280;2038;51.728;6.674;2022-11-23T14:42:56;99045.47;;;10.74;93.40
47753;BME280;2038;51.728;6.674;2022-11-23T14:45:27;99051.66;;;10.81;93.56
47753;BME280;2038;51.728;6.674;2022-11-23T14:47:56;99048.94;;;10.76;93.78
47753;BME280;2038;51.728;6.674;2022-11-23T14:50:26;99054.81;;;10.75;94.30
47753;BME280;2038;51.728;6.674;2022-11-23T14:52:55;99064.19;;;10.75;94.25
47753;BME280;2038;51.728;6.674;2022-11-23T14:55:35;99070.44;;;10.83;93.39
47753;BME280;2038;51.728;6.674;2022-11-23T14:58:03;99073.13;;;10.88;93.32
47753;BME280;2038;51.728;6.674;2022-11-23T15:00:40;99077.06;;;10.79;93.56
47753;BME280;2038;51.728;6.674;2022-11-23T15:03:19;99079.56;;;10.78;94.94
47753;BME280;2038;51.728;6.674;2022-11-23T15:05:56;99084.78;;;10.81;94.27
47753;BME280;2038;51.728;6.674;2022-11-23T15:08:47;99100.13;;;10.83;94.06
47753;BME280;2038;51.728;6.674;2022-11-23T15:11:20;99101.16;;;10.88;94.06
47753;BME280;2038;51.728;6.674;2022-11-23T15:13:53;99098.50;;;10.85;94.25
47753;BME280;2038;51.728;6.674;2022-11-23T15:16:22;99105.22;;;10.83;95.07
47753;BME280;2038;51.728;6.674;2022-11-23T15:18:49;99097.69;;;10.86;94.14
47753;BME280;2038;51.728;6.674;2022-11-23T15:21:21;99107.88;;;10.86;93.94
47753;BME280;2038;51.728;6.674;2022-11-23T15:23:52;99110.19;;;10.79;95.49
47753;BME280;2038;51.728;6.674;2022-11-23T15:26:22;99112.63;;;10.76;95.11
47753;BME280;2038;51.728;6.674;2022-11-23T15:28:49;99110.88;;;10.75;95.37
47753;BME280;2038;51.728;6.674;2022-11-23T15:31:34;99117.81;;;10.79;95.67